Terminal Aerodrome Forecast
Issued by NWS

Home | Current Version | Previous Version | Text Only | Print | Product List | Glossary On
Versions: 1 2 3 4 5 6 7 8 9 10 11 12 13
000
FTUS45 KABQ 230526
TAFFMN
TAF
KFMN 230526Z 2306/2406 05006KT P6SM SCT100 SCT200
     FM231100 09007KT P6SM SCT100 SCT200
     FM231800 26006KT P6SM FEW100
     FM232100 27011KT P6SM FEW100
     FM240100 30006KT P6SM SCT250=

USA.gov is the U.S. government's official web portal to all federal, state and local government web resources and services.